createdAt,value
2018-08-24T00:00:29.368Z,14.63
2018-08-24T00:02:57.071Z,14.62
2018-08-24T00:05:24.666Z,14.60
2018-08-24T00:07:52.153Z,14.58
2018-08-24T00:10:19.794Z,14.57
2018-08-24T00:12:47.265Z,14.55
2018-08-24T00:15:14.736Z,14.54
2018-08-24T00:17:46.395Z,14.52
2018-08-24T00:20:13.874Z,14.51
2018-08-24T00:22:41.454Z,14.50
2018-08-24T00:25:09.198Z,14.49
2018-08-24T00:27:36.712Z,14.49
2018-08-24T00:30:04.434Z,14.48
2018-08-24T00:32:32.174Z,14.48
2018-08-24T00:34:59.623Z,14.46
2018-08-24T00:37:27.312Z,14.46
2018-08-24T00:39:54.938Z,14.45
2018-08-24T00:42:22.421Z,14.43
2018-08-24T00:44:49.865Z,14.42
2018-08-24T00:47:17.617Z,14.42
2018-08-24T00:49:45.030Z,14.41
2018-08-24T00:52:12.433Z,14.40
2018-08-24T00:54:40.051Z,14.38
2018-08-24T00:57:07.562Z,14.36
2018-08-24T00:59:35.030Z,14.36
2018-08-24T01:02:02.917Z,14.36
2018-08-24T01:04:35.337Z,14.35
2018-08-24T01:07:09.840Z,14.33
2018-08-24T01:09:37.837Z,14.32
2018-08-24T01:12:09.767Z,14.33
2018-08-24T01:14:37.568Z,14.32
2018-08-24T01:17:10.836Z,14.31
2018-08-24T01:19:38.502Z,14.30
2018-08-24T01:22:06.017Z,14.29
2018-08-24T01:24:33.601Z,14.28
2018-08-24T01:27:02.575Z,14.27
2018-08-24T01:29:30.801Z,14.27
2018-08-24T01:31:58.279Z,14.25
2018-08-24T01:34:25.918Z,14.23
2018-08-24T01:36:53.339Z,14.21
2018-08-24T01:39:21.119Z,14.18
2018-08-24T01:41:48.742Z,14.14
2018-08-24T01:44:16.232Z,14.10
2018-08-24T01:46:43.653Z,14.07
2018-08-24T01:49:11.412Z,14.03
2018-08-24T01:51:38.836Z,14.02
2018-08-24T01:54:06.333Z,13.98
2018-08-24T01:56:33.977Z,13.97
2018-08-24T01:59:01.436Z,13.93
2018-08-24T02:01:28.957Z,13.88
2018-08-24T02:03:56.628Z,13.84
2018-08-24T02:06:24.106Z,13.79
2018-08-24T02:08:51.737Z,13.75
2018-08-24T02:11:24.820Z,13.72
2018-08-24T02:13:58.010Z,13.69
2018-08-24T02:16:28.374Z,13.68
2018-08-24T02:19:01.362Z,13.65
2018-08-24T02:21:34.350Z,13.62
2018-08-24T02:24:02.079Z,13.60
2018-08-24T02:26:29.508Z,13.57
2018-08-24T02:28:57.042Z,13.54
2018-08-24T02:31:24.694Z,13.52
2018-08-24T02:33:52.150Z,13.49
2018-08-24T02:36:19.729Z,13.47
2018-08-24T02:38:47.287Z,13.44
2018-08-24T02:41:15.029Z,13.40
2018-08-24T02:43:42.532Z,13.37
2018-08-24T02:46:10.327Z,13.34
2018-08-24T02:48:37.832Z,13.34
2018-08-24T02:51:05.355Z,13.35
2018-08-24T02:53:33.016Z,13.34
2018-08-24T02:56:00.694Z,13.33
2018-08-24T02:58:28.117Z,13.33
2018-08-24T03:00:55.727Z,13.33
2018-08-24T03:03:23.154Z,13.32
2018-08-24T03:05:50.624Z,13.31
2018-08-24T03:08:18.426Z,13.28
2018-08-24T03:10:45.973Z,13.27
2018-08-24T03:13:13.418Z,13.27
2018-08-24T03:15:41.083Z,13.25
2018-08-24T03:18:08.581Z,13.24
2018-08-24T03:20:36.010Z,13.24
2018-08-24T03:23:03.654Z,13.24
2018-08-24T03:25:31.091Z,13.23
2018-08-24T03:27:58.562Z,13.23
2018-08-24T03:30:26.085Z,13.24
2018-08-24T03:32:53.537Z,13.25
2018-08-24T03:35:20.954Z,13.25
2018-08-24T03:37:48.634Z,13.26
2018-08-24T03:40:16.108Z,13.26
2018-08-24T03:42:43.767Z,13.27
2018-08-24T03:45:11.438Z,13.27
2018-08-24T03:47:38.978Z,13.30
2018-08-24T03:50:06.490Z,13.30
2018-08-24T03:52:34.058Z,13.31
2018-08-24T03:55:01.502Z,13.30
2018-08-24T03:57:28.936Z,13.30
2018-08-24T03:59:56.696Z,13.28
2018-08-24T04:02:24.194Z,13.26
2018-08-24T04:04:51.651Z,13.26
2018-08-24T04:07:19.396Z,13.23
2018-08-24T04:09:46.856Z,13.22
2018-08-24T04:12:14.338Z,13.21
2018-08-24T04:14:42.056Z,13.19
2018-08-24T04:17:14.967Z,13.18
2018-08-24T04:19:42.711Z,13.18
2018-08-24T04:22:10.168Z,13.19
2018-08-24T04:24:37.613Z,13.20
2018-08-24T04:27:05.326Z,13.21
2018-08-24T04:29:32.748Z,13.22
2018-08-24T04:32:00.204Z,13.22
2018-08-24T04:34:27.863Z,13.23
2018-08-24T04:36:55.330Z,13.23
2018-08-24T04:39:22.798Z,13.24
2018-08-24T04:41:50.522Z,13.26
2018-08-24T04:44:18.145Z,13.26
2018-08-24T04:46:45.612Z,13.28
2018-08-24T04:49:13.234Z,13.29
2018-08-24T04:51:40.717Z,13.30
2018-08-24T04:54:08.121Z,13.30
2018-08-24T04:56:35.756Z,13.32
2018-08-24T04:59:03.264Z,13.33
2018-08-24T05:01:30.715Z,13.34
2018-08-24T05:03:59.313Z,13.33
2018-08-24T05:06:26.733Z,13.33
2018-08-24T05:08:55.187Z,13.32
2018-08-24T05:11:22.687Z,13.34
2018-08-24T05:13:50.231Z,13.35
2018-08-24T05:16:17.745Z,13.36
2018-08-24T05:18:45.479Z,13.39
2018-08-24T05:21:12.974Z,13.41
2018-08-24T05:23:40.446Z,13.43
2018-08-24T05:26:08.144Z,13.45
2018-08-24T05:28:35.593Z,13.47
2018-08-24T05:31:03.063Z,13.48
2018-08-24T05:33:30.812Z,13.50
2018-08-24T05:35:58.306Z,13.50
2018-08-24T05:38:25.722Z,13.50
2018-08-24T05:40:53.478Z,13.53
2018-08-24T05:43:21.085Z,13.54
2018-08-24T05:45:48.722Z,13.56
2018-08-24T05:48:16.432Z,13.58
2018-08-24T05:50:43.961Z,13.59
2018-08-24T05:53:11.508Z,13.50
2018-08-24T05:55:39.651Z,13.60
2018-08-24T05:58:07.642Z,13.62
2018-08-24T06:00:36.230Z,13.61
2018-08-24T06:03:03.968Z,13.63
2018-08-24T06:05:31.431Z,13.65
2018-08-24T06:07:58.895Z,13.65
2018-08-24T06:10:26.573Z,13.66
2018-08-24T06:12:54.047Z,13.67
2018-08-24T06:15:21.522Z,13.68
2018-08-24T06:17:49.198Z,13.67
2018-08-24T06:20:16.716Z,13.68
2018-08-24T06:22:44.193Z,13.67
2018-08-24T06:25:12.157Z,13.69
2018-08-24T06:27:39.595Z,13.68
2018-08-24T06:30:07.263Z,13.66
2018-08-24T06:32:34.877Z,13.66
2018-08-24T06:35:02.355Z,13.67
2018-08-24T06:37:29.979Z,13.66
2018-08-24T06:39:57.532Z,13.66
2018-08-24T06:42:25.198Z,13.67
2018-08-24T06:44:52.623Z,13.69
2018-08-24T06:47:20.549Z,13.69
2018-08-24T06:49:47.979Z,13.69
2018-08-24T06:52:15.448Z,13.69
2018-08-24T06:54:42.979Z,13.70
2018-08-24T06:57:10.433Z,13.72
2018-08-24T06:59:37.923Z,13.73
2018-08-24T07:02:05.584Z,13.74
2018-08-24T07:04:33.016Z,13.76
2018-08-24T07:07:00.472Z,13.77
2018-08-24T07:09:28.224Z,13.81
2018-08-24T07:11:55.818Z,13.80
2018-08-24T07:14:23.233Z,13.81
2018-08-24T07:16:55.403Z,13.81
2018-08-24T07:19:22.844Z,13.83
2018-08-24T07:21:50.254Z,13.82
2018-08-24T07:24:17.994Z,13.81
2018-08-24T07:26:45.459Z,13.83
2018-08-24T07:29:12.904Z,13.70
2018-08-24T07:31:40.487Z,13.84
2018-08-24T07:34:07.915Z,13.85
2018-08-24T07:36:35.402Z,13.84
2018-08-24T07:39:03.326Z,13.85
2018-08-24T07:41:30.828Z,13.86
2018-08-24T07:43:58.302Z,13.87
2018-08-24T07:46:25.935Z,13.89
2018-08-24T07:48:53.668Z,13.92
2018-08-24T07:51:21.286Z,13.92
2018-08-24T07:53:48.914Z,13.92
2018-08-24T07:56:16.352Z,13.94
2018-08-24T07:58:43.954Z,13.94
2018-08-24T08:01:11.599Z,13.97
2018-08-24T08:03:39.049Z,13.97
2018-08-24T08:06:06.569Z,14.00
2018-08-24T08:08:34.320Z,14.01
2018-08-24T08:11:01.848Z,13.98
2018-08-24T08:13:29.298Z,13.90
2018-08-24T08:15:56.911Z,13.98
2018-08-24T08:18:24.449Z,13.98
2018-08-24T08:20:51.890Z,13.97
2018-08-24T08:23:19.649Z,13.94
2018-08-24T08:25:47.143Z,13.93
2018-08-24T08:28:14.573Z,13.95
2018-08-24T08:30:42.365Z,13.98
2018-08-24T08:33:09.844Z,14.04
2018-08-24T08:35:37.293Z,14.06
2018-08-24T08:38:05.213Z,14.06
2018-08-24T08:40:32.604Z,14.10
2018-08-24T08:43:00.339Z,14.12
2018-08-24T08:45:28.041Z,14.13
2018-08-24T08:47:55.569Z,14.13
2018-08-24T08:50:23.148Z,14.14
2018-08-24T08:52:50.662Z,14.16
2018-08-24T08:55:18.217Z,14.16
2018-08-24T08:57:45.651Z,14.17
2018-08-24T09:00:13.314Z,14.18
2018-08-24T09:02:40.767Z,14.21
2018-08-24T09:05:08.285Z,14.21
2018-08-24T09:07:35.992Z,14.22
2018-08-24T09:10:03.597Z,14.24
2018-08-24T09:12:31.063Z,14.26
2018-08-24T09:14:58.570Z,14.29
2018-08-24T09:17:31.477Z,14.32
2018-08-24T09:20:04.622Z,14.35
2018-08-24T09:22:38.989Z,14.39
2018-08-24T09:25:12.092Z,14.43
2018-08-24T09:27:44.868Z,14.46
2018-08-24T09:30:12.406Z,14.50
2018-08-24T09:32:39.973Z,14.54
2018-08-24T09:35:07.619Z,14.50
2018-08-24T09:37:37.226Z,14.58
2018-08-24T09:40:05.381Z,14.60
2018-08-24T09:42:33.094Z,14.62
2018-08-24T09:45:00.588Z,14.64
2018-08-24T09:47:33.466Z,14.67
2018-08-24T09:50:06.390Z,14.70
2018-08-24T09:52:34.082Z,14.72
2018-08-24T09:55:01.573Z,14.75
2018-08-24T09:57:29.051Z,14.78
2018-08-24T09:59:56.724Z,14.81
2018-08-24T10:02:25.367Z,14.83
2018-08-24T10:04:58.398Z,14.86
2018-08-24T10:07:31.084Z,14.89
2018-08-24T10:09:58.660Z,14.92
2018-08-24T10:12:26.182Z,14.95
2018-08-24T10:14:53.879Z,14.98
2018-08-24T10:17:25.192Z,15.01
2018-08-24T10:19:52.979Z,15.05
2018-08-24T10:22:20.730Z,15.07
2018-08-24T10:24:48.242Z,15.10
2018-08-24T10:27:15.739Z,15.12
2018-08-24T10:29:43.531Z,15.16
2018-08-24T10:32:10.949Z,15.18
2018-08-24T10:34:38.490Z,15.21
2018-08-24T10:37:05.995Z,15.23
2018-08-24T10:39:33.456Z,15.22
2018-08-24T10:42:00.914Z,15.23
2018-08-24T10:44:28.521Z,15.24
2018-08-24T10:46:56.020Z,15.25
2018-08-24T10:49:23.657Z,15.26
2018-08-24T10:51:51.289Z,15.29
2018-08-24T10:54:18.779Z,15.31
2018-08-24T10:56:46.256Z,15.34
2018-08-24T10:59:14.062Z,15.37
2018-08-24T11:01:41.550Z,15.41
2018-08-24T11:04:09.029Z,15.43
2018-08-24T11:06:36.778Z,15.46
2018-08-24T11:09:06.550Z,15.49
2018-08-24T11:11:34.061Z,15.50
2018-08-24T11:14:01.694Z,15.54
2018-08-24T11:16:29.150Z,15.58
2018-08-24T11:18:56.604Z,15.63
2018-08-24T11:21:24.321Z,15.68
2018-08-24T11:23:51.816Z,15.73
2018-08-24T11:26:19.366Z,15.79
2018-08-24T11:28:47.025Z,15.84
2018-08-24T11:31:14.533Z,15.91
2018-08-24T11:33:41.979Z,15.95
2018-08-24T11:36:09.681Z,16.03
2018-08-24T11:38:37.055Z,16.09
2018-08-24T11:41:04.699Z,16.18
2018-08-24T11:43:32.339Z,16.26
2018-08-24T11:45:59.884Z,16.34
2018-08-24T11:48:28.044Z,16.41
2018-08-24T11:50:56.306Z,16.49
2018-08-24T11:53:23.933Z,16.56
2018-08-24T11:55:51.691Z,16.64
2018-08-24T11:58:19.223Z,16.71
2018-08-24T12:00:46.683Z,16.76
2018-08-24T12:03:14.147Z,16.82
2018-08-24T12:05:41.750Z,16.88
2018-08-24T12:08:09.399Z,16.93
2018-08-24T12:10:36.716Z,16.97
2018-08-24T12:13:04.405Z,17.00
2018-08-24T12:15:31.874Z,17.04
2018-08-24T12:17:59.431Z,17.07
2018-08-24T12:20:27.138Z,17.11
2018-08-24T12:22:54.729Z,17.15
2018-08-24T12:25:22.181Z,17.18
2018-08-24T12:27:49.828Z,17.21
2018-08-24T12:30:17.313Z,17.24
2018-08-24T12:32:44.745Z,17.27
2018-08-24T12:35:12.441Z,17.30
2018-08-24T12:37:42.734Z,17.33
2018-08-24T12:40:10.311Z,17.37
2018-08-24T12:42:37.965Z,17.39
2018-08-24T12:45:05.468Z,17.41
2018-08-24T12:47:32.945Z,17.43
2018-08-24T12:50:00.652Z,17.45
2018-08-24T12:52:28.105Z,17.47
2018-08-24T12:54:55.552Z,17.48
2018-08-24T12:57:28.284Z,17.50
2018-08-24T12:59:56.016Z,17.50
2018-08-24T13:02:23.465Z,17.53
2018-08-24T13:04:51.069Z,17.52
2018-08-24T13:07:18.530Z,17.54
2018-08-24T13:09:46.194Z,17.56
2018-08-24T13:12:13.827Z,17.57
2018-08-24T13:14:41.287Z,17.59
2018-08-24T13:17:08.756Z,17.59
2018-08-24T13:19:36.387Z,17.63
2018-08-24T13:22:03.887Z,17.66
2018-08-24T13:24:31.297Z,17.55
2018-08-24T13:26:59.007Z,17.68
2018-08-24T13:29:26.533Z,17.69
2018-08-24T13:31:54.012Z,17.70
2018-08-24T13:34:21.605Z,17.70
2018-08-24T13:36:49.109Z,17.69
2018-08-24T13:39:16.558Z,17.68
2018-08-24T13:41:44.389Z,17.69
2018-08-24T13:44:11.944Z,17.69
2018-08-24T13:46:39.395Z,17.70
2018-08-24T13:49:07.170Z,17.69
2018-08-24T13:51:34.615Z,17.70
2018-08-24T13:54:02.088Z,17.70
2018-08-24T13:56:29.687Z,17.70
2018-08-24T13:58:57.343Z,17.68
2018-08-24T14:01:24.816Z,17.70
2018-08-24T14:03:52.485Z,17.70
2018-08-24T14:06:19.947Z,17.70
2018-08-24T14:08:47.424Z,17.70
2018-08-24T14:11:15.023Z,17.71
2018-08-24T14:13:42.446Z,17.72
2018-08-24T14:16:09.937Z,17.73
2018-08-24T14:18:37.589Z,17.73
2018-08-24T14:21:05.244Z,17.73
2018-08-24T14:23:32.844Z,17.72
2018-08-24T14:26:00.641Z,17.72
2018-08-24T14:28:28.095Z,17.72
2018-08-24T14:30:55.591Z,17.71
2018-08-24T14:33:23.143Z,17.70
2018-08-24T14:35:50.841Z,17.70
2018-08-24T14:38:18.382Z,17.69
2018-08-24T14:40:45.903Z,17.70
2018-08-24T14:43:13.480Z,17.69
2018-08-24T14:45:40.934Z,17.68
2018-08-24T14:48:08.609Z,17.69
2018-08-24T14:50:36.121Z,17.69
2018-08-24T14:53:03.687Z,17.70
2018-08-24T14:55:31.416Z,17.67
2018-08-24T14:57:58.914Z,17.63
2018-08-24T15:00:26.699Z,17.61
2018-08-24T15:02:54.434Z,17.59
2018-08-24T15:05:22.019Z,17.57
2018-08-24T15:07:49.534Z,17.54
2018-08-24T15:10:17.195Z,17.50
2018-08-24T15:12:44.630Z,17.49
2018-08-24T15:15:12.095Z,17.47
2018-08-24T15:17:39.742Z,17.45
2018-08-24T15:20:07.581Z,17.45
2018-08-24T15:22:35.107Z,17.43
2018-08-24T15:25:02.703Z,17.41
2018-08-24T15:27:30.171Z,17.40
2018-08-24T15:29:58.030Z,17.36
2018-08-24T15:32:25.644Z,17.33
2018-08-24T15:34:53.078Z,17.33
2018-08-24T15:37:20.927Z,17.33
2018-08-24T15:39:48.442Z,17.32
2018-08-24T15:42:15.982Z,17.29
2018-08-24T15:44:43.613Z,17.27
2018-08-24T15:47:11.558Z,17.25
2018-08-24T15:49:39.053Z,17.24
2018-08-24T15:52:06.555Z,17.25
2018-08-24T15:54:34.196Z,17.25
2018-08-24T15:57:01.680Z,17.21
2018-08-24T15:59:29.182Z,17.22
2018-08-24T16:01:56.869Z,17.21
2018-08-24T16:04:24.354Z,17.20
2018-08-24T16:06:51.906Z,17.19
2018-08-24T16:09:19.485Z,17.16
2018-08-24T16:11:46.935Z,17.16
2018-08-24T16:14:14.386Z,17.15
2018-08-24T16:16:42.282Z,17.15
2018-08-24T16:19:09.702Z,17.16
2018-08-24T16:21:37.132Z,17.13
2018-08-24T16:24:04.878Z,17.14
2018-08-24T16:26:32.500Z,17.13
2018-08-24T16:28:59.946Z,17.14
2018-08-24T16:31:27.659Z,17.14
2018-08-24T16:33:55.177Z,17.15
2018-08-24T16:36:22.606Z,17.13
2018-08-24T16:38:50.334Z,17.14
2018-08-24T16:41:17.850Z,17.12
2018-08-24T16:43:45.302Z,17.10
2018-08-24T16:46:12.959Z,17.08
2018-08-24T16:48:40.457Z,17.07
2018-08-24T16:51:08.301Z,17.05
2018-08-24T16:53:35.859Z,17.04
2018-08-24T16:56:03.356Z,17.04
2018-08-24T16:58:30.938Z,17.02
2018-08-24T17:00:58.539Z,17.02
2018-08-24T17:03:26.051Z,17.01
2018-08-24T17:05:53.505Z,16.99
2018-08-24T17:08:21.132Z,16.98
2018-08-24T17:10:48.557Z,16.98
2018-08-24T17:13:16.010Z,16.97
2018-08-24T17:15:43.819Z,16.97
2018-08-24T17:18:11.213Z,16.97
2018-08-24T17:20:38.795Z,16.96
2018-08-24T17:23:06.463Z,16.95
2018-08-24T17:25:33.943Z,16.96
2018-08-24T17:28:01.373Z,16.96
2018-08-24T17:30:29.186Z,16.97
2018-08-24T17:32:56.662Z,16.96
2018-08-24T17:35:24.117Z,16.98
2018-08-24T17:37:51.688Z,16.97
2018-08-24T17:40:19.139Z,16.96
2018-08-24T17:42:46.562Z,16.94
2018-08-24T17:45:14.190Z,16.92
2018-08-24T17:47:41.691Z,16.92
2018-08-24T17:50:09.519Z,16.86
2018-08-24T17:52:37.082Z,16.94
2018-08-24T17:55:04.614Z,16.94
2018-08-24T17:57:32.144Z,16.96
2018-08-24T17:59:59.733Z,16.97
2018-08-24T18:02:27.237Z,16.96
2018-08-24T18:04:54.705Z,16.95
2018-08-24T18:07:22.343Z,16.96
2018-08-24T18:09:49.767Z,16.94
2018-08-24T18:12:17.253Z,16.92
2018-08-24T18:14:44.906Z,16.87
2018-08-24T18:17:12.380Z,16.87
2018-08-24T18:19:39.841Z,16.86
2018-08-24T18:22:07.491Z,16.84
2018-08-24T18:24:34.971Z,16.85
2018-08-24T18:27:02.542Z,16.85
2018-08-24T18:29:30.287Z,16.84
2018-08-24T18:31:57.891Z,16.83
2018-08-24T18:34:25.378Z,16.82
2018-08-24T18:36:53.267Z,16.80
2018-08-24T18:39:20.775Z,16.79
2018-08-24T18:41:48.314Z,16.75
2018-08-24T18:44:16.048Z,16.70
2018-08-24T18:46:43.474Z,16.70
2018-08-24T18:49:10.883Z,16.61
2018-08-24T18:51:38.425Z,16.66
2018-08-24T18:54:06.021Z,16.64
2018-08-24T18:56:33.605Z,16.60
2018-08-24T18:59:01.203Z,16.60
2018-08-24T19:01:28.764Z,16.61
2018-08-24T19:03:56.338Z,16.63
2018-08-24T19:06:24.018Z,16.62
2018-08-24T19:08:51.434Z,16.61
2018-08-24T19:11:24.425Z,16.62
2018-08-24T19:13:51.976Z,16.62
2018-08-24T19:16:19.461Z,16.61
2018-08-24T19:18:52.628Z,16.60
2018-08-24T19:21:25.654Z,16.60
2018-08-24T19:23:53.291Z,16.60
2018-08-24T19:26:20.820Z,16.58
2018-08-24T19:28:53.947Z,16.56
2018-08-24T19:31:21.541Z,16.55
2018-08-24T19:33:49.173Z,16.52
2018-08-24T19:36:16.628Z,16.50
2018-08-24T19:38:44.254Z,16.49
2018-08-24T19:41:17.332Z,16.50
2018-08-24T19:43:44.812Z,16.50
2018-08-24T19:46:12.564Z,16.51
2018-08-24T19:48:45.620Z,16.51
2018-08-24T19:51:13.093Z,16.51
2018-08-24T19:53:40.720Z,16.51
2018-08-24T19:56:08.186Z,16.49
2018-08-24T19:58:41.243Z,16.48
2018-08-24T20:01:09.202Z,16.46
2018-08-24T20:03:36.671Z,16.47
2018-08-24T20:06:09.885Z,16.46
2018-08-24T20:08:42.869Z,16.46
2018-08-24T20:11:10.475Z,16.47
2018-08-24T20:13:37.941Z,16.49
2018-08-24T20:16:11.055Z,16.49
2018-08-24T20:18:38.698Z,16.51
2018-08-24T20:21:06.196Z,16.50
2018-08-24T20:23:33.667Z,16.48
2018-08-24T20:26:01.355Z,16.48
2018-08-24T20:28:28.843Z,16.47
2018-08-24T20:30:56.419Z,16.47
2018-08-24T20:33:23.879Z,16.44
2018-08-24T20:35:51.382Z,16.44
2018-08-24T20:38:18.809Z,16.43
2018-08-24T20:40:46.327Z,16.43
2018-08-24T20:43:13.776Z,16.41
2018-08-24T20:45:41.282Z,16.41
2018-08-24T20:48:08.945Z,16.39
2018-08-24T20:50:36.401Z,16.37
2018-08-24T20:53:04.020Z,16.38
2018-08-24T20:55:31.817Z,16.40
2018-08-24T20:57:59.264Z,16.41
2018-08-24T21:00:26.667Z,16.42
2018-08-24T21:02:54.231Z,16.43
2018-08-24T21:05:21.637Z,16.44
2018-08-24T21:07:49.083Z,16.45
2018-08-24T21:10:16.738Z,16.46
2018-08-24T21:12:44.122Z,16.46
2018-08-24T21:15:11.630Z,16.46
2018-08-24T21:17:39.285Z,16.45
2018-08-24T21:20:06.755Z,16.46
2018-08-24T21:22:34.249Z,16.46
2018-08-24T21:25:01.765Z,16.49
2018-08-24T21:27:29.276Z,16.49
2018-08-24T21:29:56.789Z,16.50
2018-08-24T21:32:24.514Z,16.51
2018-08-24T21:34:51.892Z,16.51
2018-08-24T21:37:19.454Z,16.50
2018-08-24T21:39:46.950Z,16.51
2018-08-24T21:42:14.383Z,16.53
2018-08-24T21:44:41.862Z,16.53
2018-08-24T21:47:09.393Z,16.56
2018-08-24T21:49:36.842Z,16.56
2018-08-24T21:52:04.296Z,16.57
2018-08-24T21:54:31.926Z,16.58
2018-08-24T21:56:59.327Z,16.59
2018-08-24T21:59:26.781Z,16.59
2018-08-24T22:01:54.485Z,16.60
2018-08-24T22:04:21.962Z,16.61
2018-08-24T22:06:49.406Z,16.63
2018-08-24T22:09:17.041Z,16.66
2018-08-24T22:11:44.586Z,16.66
2018-08-24T22:14:12.056Z,16.67
2018-08-24T22:16:39.718Z,16.68
2018-08-24T22:19:07.206Z,16.69
2018-08-24T22:21:34.653Z,16.70
2018-08-24T22:24:02.330Z,16.70
2018-08-24T22:26:29.822Z,16.69
2018-08-24T22:28:57.284Z,16.71
2018-08-24T22:31:25.035Z,16.71
2018-08-24T22:33:52.561Z,16.70
2018-08-24T22:36:19.983Z,16.69
2018-08-24T22:38:47.724Z,16.71
2018-08-24T22:41:15.245Z,16.71
2018-08-24T22:43:42.677Z,16.71
2018-08-24T22:46:10.338Z,16.71
2018-08-24T22:48:37.833Z,16.72
2018-08-24T22:51:05.304Z,16.72
2018-08-24T22:53:32.926Z,16.72
2018-08-24T22:56:00.449Z,16.71
2018-08-24T22:58:27.904Z,16.72
2018-08-24T23:00:55.521Z,16.74
2018-08-24T23:03:22.987Z,16.74
2018-08-24T23:05:50.411Z,16.75
2018-08-24T23:08:18.043Z,16.76
2018-08-24T23:10:45.546Z,16.77
2018-08-24T23:13:12.992Z,16.77
2018-08-24T23:15:40.590Z,16.77
2018-08-24T23:18:08.113Z,16.79
2018-08-24T23:20:35.555Z,16.78
2018-08-24T23:23:03.288Z,16.80
2018-08-24T23:25:30.824Z,16.81
2018-08-24T23:27:58.229Z,16.80
2018-08-24T23:30:26.131Z,16.72
2018-08-24T23:32:53.582Z,16.83
2018-08-24T23:35:21.076Z,16.83
2018-08-24T23:37:48.682Z,16.84
2018-08-24T23:40:16.314Z,16.85
2018-08-24T23:42:43.764Z,16.85
2018-08-24T23:45:11.331Z,16.86
2018-08-24T23:47:38.776Z,16.87
2018-08-24T23:50:06.527Z,16.87
2018-08-24T23:52:34.058Z,16.88
2018-08-24T23:55:01.510Z,16.90
2018-08-24T23:57:28.968Z,16.90
2018-08-24T23:59:56.657Z,16.90
